EGSS

London Stansted Airport

London, United Kingdom
METAR EGSS 190450Z AUTO 18008KT 9999 BKN011/// //////TCU 06/05 Q1003
Observed Flight Rules
Dec-19 @ 04:50 UTC (38 minutes ago) Marginal Visual Flight Rules
Wind Visibility Clouds
180° at 8 knots 10,000+ meters
  • Broken at 1,100' AGL
Temperatures Readings
Current 6°C / 43°F
Dewpoint 5°C / 41°F
Humidity 93%
Altimeter 29.62" Hg
Pressure 1003 hPa
Elevation 106
METAR EGSS 190450Z AUTO 18008KT 9999 BKN011/// //////TCU 06/05 Q1003
Observed Flight Rules
Dec-19 @ 04:50 UTC
(38 minutes ago)
MVFR
Wind Visibility
180° at 8 knots 10,000+ meters
Clouds
  • Broken at 1,100' AGL
Temperature Dewpoint
6°C / 43°F 5°C / 41°F
Humidity Altimeter Pressure
93% 29.62" Hg 1003 hPa